LYNI/INI METAR and TAF weather

Enter ICAO airport designator
Station Type Date Time Source
LYNI METAR 2019/08/24 22:30 UTC NOAA

LYNI 242230Z 23003KT 160V270 CAVOK 26/14 Q1019 NOSIG


Station Type Date Time Source
LYNI Decoded METAR 2019/08/24 22:30 UTC NOAA

Station name not available
Aug 24, 2019 - 06:30 PM EDT / 2019.08.24 2230 UTC
Wind: from the SW (230 degrees) at 3 MPH (3 KT) (direction variable):0
Visibility: greater than 7 mile(s):0
Temperature: 78 F (26 C)
Dew Point: 57 F (14 C)
Relative Humidity: 47%
Pressure (altimeter): 30.09 in. Hg (1019 hPa)
ob: LYNI 242230Z 23003KT 160V270 CAVOK 26/14 Q1019 NOSIG
cycle: 22

Station Type Date Time Source
LYNI TAF 2019/08/24 18:21 UTC NOAA

TAF LYNI 241700Z 2418/2518 08008KT 9999 SCT040 TX33/2513Z TN18/2503Z
TEMPO 2418/2424 5000 SHRA SCT030TCU SCT040
TEMPO 2512/2517 VRB15KT 3000 TSRA SCT030CB BKN040

Example: see airport list